sensor_id;sensor_type;location;lat;lon;timestamp;pressure;altitude;pressure_sealevel;temperature;humidity
27334;BME280;14817;57.104;-2.094;2022-08-27T00:00:30;101071.78;;;14.63;86.03
27334;BME280;14817;57.104;-2.094;2022-08-27T00:02:57;101070.28;;;14.61;86.31
27334;BME280;14817;57.104;-2.094;2022-08-27T00:05:24;101065.41;;;14.64;85.97
27334;BME280;14817;57.104;-2.094;2022-08-27T00:07:51;101057.16;;;14.66;86.09
27334;BME280;14817;57.104;-2.094;2022-08-27T00:10:22;101060.69;;;14.66;86.14
27334;BME280;14817;57.104;-2.094;2022-08-27T00:12:52;101058.84;;;14.67;85.92
27334;BME280;14817;57.104;-2.094;2022-08-27T00:15:21;101058.84;;;14.67;85.31
27334;BME280;14817;57.104;-2.094;2022-08-27T00:17:48;101062.56;;;14.66;85.73
27334;BME280;14817;57.104;-2.094;2022-08-27T00:20:18;101054.28;;;14.67;85.77
27334;BME280;14817;57.104;-2.094;2022-08-27T00:22:45;101041.66;;;14.76;85.21
27334;BME280;14817;57.104;-2.094;2022-08-27T00:25:12;101049.72;;;14.60;85.68
27334;BME280;14817;57.104;-2.094;2022-08-27T00:27:40;101052.44;;;14.60;85.35
27334;BME280;14817;57.104;-2.094;2022-08-27T00:30:10;101059.16;;;14.56;85.91
27334;BME280;14817;57.104;-2.094;2022-08-27T00:32:38;101052.22;;;14.53;86.21
27334;BME280;14817;57.104;-2.094;2022-08-27T00:35:06;101057.41;;;14.55;85.99
27334;BME280;14817;57.104;-2.094;2022-08-27T00:37:34;101055.38;;;14.48;85.91
27334;BME280;14817;57.104;-2.094;2022-08-27T00:40:04;101058.56;;;14.44;86.22
27334;BME280;14817;57.104;-2.094;2022-08-27T00:42:32;101063.13;;;14.43;86.38
27334;BME280;14817;57.104;-2.094;2022-08-27T00:44:59;101061.91;;;14.38;86.27
27334;BME280;14817;57.104;-2.094;2022-08-27T00:47:29;101067.47;;;14.28;86.34
27334;BME280;14817;57.104;-2.094;2022-08-27T00:50:03;101057.69;;;14.27;86.08
27334;BME280;14817;57.104;-2.094;2022-08-27T00:53:09;101064.59;;;14.21;86.65
27334;BME280;14817;57.104;-2.094;2022-08-27T00:55:46;101058.00;;;14.16;86.78
27334;BME280;14817;57.104;-2.094;2022-08-27T01:00:54;101057.78;;;14.09;87.10
27334;BME280;14817;57.104;-2.094;2022-08-27T01:03:22;101060.16;;;14.12;86.93
27334;BME280;14817;57.104;-2.094;2022-08-27T01:05:52;101062.38;;;14.17;86.87
27334;BME280;14817;57.104;-2.094;2022-08-27T01:08:22;101058.81;;;14.16;87.33
27334;BME280;14817;57.104;-2.094;2022-08-27T01:10:50;101063.03;;;14.19;87.34
27334;BME280;14817;57.104;-2.094;2022-08-27T01:13:20;101056.31;;;14.23;87.08
27334;BME280;14817;57.104;-2.094;2022-08-27T01:16:09;101056.16;;;14.24;87.06
27334;BME280;14817;57.104;-2.094;2022-08-27T01:18:39;101055.47;;;14.22;86.95
27334;BME280;14817;57.104;-2.094;2022-08-27T01:26:31;101052.81;;;14.30;86.94
27334;BME280;14817;57.104;-2.094;2022-08-27T01:28:58;101056.00;;;14.26;87.10
27334;BME280;14817;57.104;-2.094;2022-08-27T01:31:26;101064.44;;;14.31;86.74
27334;BME280;14817;57.104;-2.094;2022-08-27T01:34:02;101061.25;;;14.36;86.53
27334;BME280;14817;57.104;-2.094;2022-08-27T01:36:30;101061.59;;;14.33;86.53
27334;BME280;14817;57.104;-2.094;2022-08-27T01:38:57;101059.41;;;14.36;86.48
27334;BME280;14817;57.104;-2.094;2022-08-27T01:41:24;101061.25;;;14.36;86.20
27334;BME280;14817;57.104;-2.094;2022-08-27T01:43:52;101062.25;;;14.35;86.98
27334;BME280;14817;57.104;-2.094;2022-08-27T01:46:24;101065.94;;;14.34;86.44
27334;BME280;14817;57.104;-2.094;2022-08-27T01:48:52;101063.09;;;14.35;86.32
27334;BME280;14817;57.104;-2.094;2022-08-27T01:51:19;101060.25;;;14.37;86.66
27334;BME280;14817;57.104;-2.094;2022-08-27T01:53:47;101067.84;;;14.41;85.99
27334;BME280;14817;57.104;-2.094;2022-08-27T01:56:14;101063.78;;;14.37;86.43
27334;BME280;14817;57.104;-2.094;2022-08-27T01:58:41;101053.38;;;14.42;85.80
27334;BME280;14817;57.104;-2.094;2022-08-27T02:01:11;101052.34;;;14.43;86.00
27334;BME280;14817;57.104;-2.094;2022-08-27T02:03:40;101054.03;;;14.44;85.73
27334;BME280;14817;57.104;-2.094;2022-08-27T02:06:10;101052.34;;;14.43;85.82
27334;BME280;14817;57.104;-2.094;2022-08-27T02:08:37;101051.31;;;14.44;85.51
27334;BME280;14817;57.104;-2.094;2022-08-27T02:11:06;101052.34;;;14.43;85.61
27334;BME280;14817;57.104;-2.094;2022-08-27T02:13:34;101052.88;;;14.47;85.32
27334;BME280;14817;57.104;-2.094;2022-08-27T02:16:02;101051.16;;;14.46;85.38
27334;BME280;14817;57.104;-2.094;2022-08-27T02:18:29;101052.53;;;14.50;85.14
27334;BME280;14817;57.104;-2.094;2022-08-27T02:20:55;101041.91;;;14.48;85.24
27334;BME280;14817;57.104;-2.094;2022-08-27T02:23:22;101046.97;;;14.43;85.28
27334;BME280;14817;57.104;-2.094;2022-08-27T02:25:49;101049.31;;;14.46;85.21
27334;BME280;14817;57.104;-2.094;2022-08-27T02:28:17;101049.31;;;14.46;85.04
27334;BME280;14817;57.104;-2.094;2022-08-27T02:30:44;101051.81;;;14.40;85.32
27334;BME280;14817;57.104;-2.094;2022-08-27T02:33:11;101049.63;;;14.35;85.57
27334;BME280;14817;57.104;-2.094;2022-08-27T02:35:39;101052.00;;;14.38;84.84
27334;BME280;14817;57.104;-2.094;2022-08-27T02:38:07;101059.72;;;14.33;85.20
27334;BME280;14817;57.104;-2.094;2022-08-27T02:40:34;101050.94;;;14.15;85.98
27334;BME280;14817;57.104;-2.094;2022-08-27T02:43:03;101046.72;;;14.20;86.21
27334;BME280;14817;57.104;-2.094;2022-08-27T02:45:30;101051.38;;;14.10;86.30
27334;BME280;14817;57.104;-2.094;2022-08-27T02:47:57;101052.91;;;14.04;86.83
27334;BME280;14817;57.104;-2.094;2022-08-27T02:50:23;101060.91;;;13.88;86.94
27334;BME280;14817;57.104;-2.094;2022-08-27T02:52:53;101056.19;;;13.90;86.87
27334;BME280;14817;57.104;-2.094;2022-08-27T02:55:19;101060.53;;;13.83;87.50
27334;BME280;14817;57.104;-2.094;2022-08-27T02:58:13;101067.31;;;13.87;87.51
27334;BME280;14817;57.104;-2.094;2022-08-27T03:00:43;101065.75;;;13.84;87.30
27334;BME280;14817;57.104;-2.094;2022-08-27T03:03:10;101070.16;;;13.85;87.52
27334;BME280;14817;57.104;-2.094;2022-08-27T03:05:38;101066.63;;;13.85;87.89
27334;BME280;14817;57.104;-2.094;2022-08-27T03:08:05;101067.94;;;13.81;88.18
27334;BME280;14817;57.104;-2.094;2022-08-27T03:10:32;101068.94;;;13.80;87.88
27334;BME280;14817;57.104;-2.094;2022-08-27T03:12:59;101075.34;;;13.79;88.20
27334;BME280;14817;57.104;-2.094;2022-08-27T03:15:26;101069.06;;;13.78;88.01
27334;BME280;14817;57.104;-2.094;2022-08-27T03:17:53;101066.31;;;13.96;87.46
27334;BME280;14817;57.104;-2.094;2022-08-27T03:20:40;101076.72;;;13.91;87.86
27334;BME280;14817;57.104;-2.094;2022-08-27T03:23:08;101073.88;;;13.93;87.29
27334;BME280;14817;57.104;-2.094;2022-08-27T03:25:36;101066.22;;;13.80;88.07
27334;BME280;14817;57.104;-2.094;2022-08-27T03:28:04;101067.97;;;13.89;87.35
27334;BME280;14817;57.104;-2.094;2022-08-27T03:30:39;101065.03;;;14.08;86.46
27334;BME280;14817;57.104;-2.094;2022-08-27T03:33:06;101071.81;;;13.86;87.66
27334;BME280;14817;57.104;-2.094;2022-08-27T03:35:33;101062.59;;;13.89;87.43
27334;BME280;14817;57.104;-2.094;2022-08-27T03:38:00;101069.50;;;13.92;87.06
27334;BME280;14817;57.104;-2.094;2022-08-27T03:40:27;101069.06;;;14.04;86.58
27334;BME280;14817;57.104;-2.094;2022-08-27T03:43:20;101061.13;;;14.03;87.04
27334;BME280;14817;57.104;-2.094;2022-08-27T03:45:48;101067.69;;;14.00;86.76
27334;BME280;14817;57.104;-2.094;2022-08-27T03:48:29;101067.84;;;13.99;86.79
27334;BME280;14817;57.104;-2.094;2022-08-27T03:50:58;101062.34;;;14.08;86.30
27334;BME280;14817;57.104;-2.094;2022-08-27T03:53:30;101059.66;;;14.08;86.21
27334;BME280;14817;57.104;-2.094;2022-08-27T03:55:57;101067.66;;;13.92;87.00
27334;BME280;14817;57.104;-2.094;2022-08-27T03:58:24;101066.81;;;13.92;87.25
27334;BME280;14817;57.104;-2.094;2022-08-27T04:00:52;101069.25;;;13.77;87.87
27334;BME280;14817;57.104;-2.094;2022-08-27T04:03:20;101066.53;;;13.68;88.13
27334;BME280;14817;57.104;-2.094;2022-08-27T04:05:52;101064.19;;;13.74;88.29
27334;BME280;14817;57.104;-2.094;2022-08-27T04:08:21;101068.63;;;13.91;87.32
27334;BME280;14817;57.104;-2.094;2022-08-27T04:10:50;101069.50;;;13.92;87.19
27334;BME280;14817;57.104;-2.094;2022-08-27T04:13:18;101061.94;;;13.95;87.04
27334;BME280;14817;57.104;-2.094;2022-08-27T04:15:48;101066.63;;;13.93;87.09
27334;BME280;14817;57.104;-2.094;2022-08-27T04:18:16;101072.00;;;13.93;86.77
27334;BME280;14817;57.104;-2.094;2022-08-27T04:20:44;101070.00;;;13.95;87.03
27334;BME280;14817;57.104;-2.094;2022-08-27T04:23:12;101070.97;;;13.86;87.32
27334;BME280;14817;57.104;-2.094;2022-08-27T04:25:43;101073.19;;;13.91;87.29
27334;BME280;14817;57.104;-2.094;2022-08-27T04:28:12;101070.97;;;13.86;87.46
27334;BME280;14817;57.104;-2.094;2022-08-27T04:30:44;101073.00;;;13.84;87.19
27334;BME280;14817;57.104;-2.094;2022-08-27T04:33:12;101071.63;;;13.80;87.81
27334;BME280;14817;57.104;-2.094;2022-08-27T04:35:40;101070.19;;;13.59;88.24
27334;BME280;14817;57.104;-2.094;2022-08-27T04:38:07;101070.03;;;13.69;87.63
27334;BME280;14817;57.104;-2.094;2022-08-27T04:40:36;101072.69;;;13.61;88.35
27334;BME280;14817;57.104;-2.094;2022-08-27T04:43:21;101073.00;;;13.58;88.14
27334;BME280;14817;57.104;-2.094;2022-08-27T04:45:48;101072.69;;;13.61;88.07
27334;BME280;14817;57.104;-2.094;2022-08-27T04:48:17;101072.63;;;13.53;88.61
27334;BME280;14817;57.104;-2.094;2022-08-27T04:50:46;101074.75;;;13.41;88.91
27334;BME280;14817;57.104;-2.094;2022-08-27T04:53:14;101069.03;;;13.44;88.67
27334;BME280;14817;57.104;-2.094;2022-08-27T04:55:44;101072.13;;;13.49;87.83
27334;BME280;14817;57.104;-2.094;2022-08-27T04:58:12;101073.78;;;13.50;87.58
27334;BME280;14817;57.104;-2.094;2022-08-27T05:00:44;101066.94;;;13.56;87.46
27334;BME280;14817;57.104;-2.094;2022-08-27T05:03:11;101070.81;;;13.53;87.75
27334;BME280;14817;57.104;-2.094;2022-08-27T05:05:38;101069.78;;;13.54;88.21
27334;BME280;14817;57.104;-2.094;2022-08-27T05:08:08;101078.47;;;13.48;88.65
27334;BME280;14817;57.104;-2.094;2022-08-27T05:10:40;101074.06;;;13.39;89.30
27334;BME280;14817;57.104;-2.094;2022-08-27T05:13:08;101077.91;;;13.36;89.26
27334;BME280;14817;57.104;-2.094;2022-08-27T05:15:35;101066.47;;;13.34;89.50
27334;BME280;14817;57.104;-2.094;2022-08-27T05:18:04;101066.34;;;13.44;89.00
27334;BME280;14817;57.104;-2.094;2022-08-27T05:20:33;101064.41;;;13.54;89.03
27334;BME280;14817;57.104;-2.094;2022-08-27T05:23:06;101068.47;;;13.58;88.40
27334;BME280;14817;57.104;-2.094;2022-08-27T05:25:38;101072.88;;;13.59;89.28
27334;BME280;14817;57.104;-2.094;2022-08-27T05:28:05;101067.16;;;13.62;88.82
27334;BME280;14817;57.104;-2.094;2022-08-27T05:30:40;101066.53;;;13.68;88.41
27334;BME280;14817;57.104;-2.094;2022-08-27T05:33:07;101072.59;;;13.71;88.35
27334;BME280;14817;57.104;-2.094;2022-08-27T05:35:42;101080.72;;;13.79;87.74
27334;BME280;14817;57.104;-2.094;2022-08-27T05:38:09;101089.81;;;13.86;87.78
27334;BME280;14817;57.104;-2.094;2022-08-27T05:40:38;101093.16;;;13.80;88.34
27334;BME280;14817;57.104;-2.094;2022-08-27T05:43:06;101092.31;;;13.79;88.37
27334;BME280;14817;57.104;-2.094;2022-08-27T05:45:42;101101.03;;;13.73;88.10
27334;BME280;14817;57.104;-2.094;2022-08-27T05:48:09;101096.41;;;13.57;88.58
27334;BME280;14817;57.104;-2.094;2022-08-27T05:50:42;101093.28;;;13.70;88.08
27334;BME280;14817;57.104;-2.094;2022-08-27T05:53:11;101096.13;;;13.68;88.76
27334;BME280;14817;57.104;-2.094;2022-08-27T05:55:41;101086.78;;;13.81;88.35
27334;BME280;14817;57.104;-2.094;2022-08-27T05:58:10;101091.56;;;13.95;87.91
27334;BME280;14817;57.104;-2.094;2022-08-27T06:00:57;101086.59;;;14.08;87.53
27334;BME280;14817;57.104;-2.094;2022-08-27T06:03:36;101090.19;;;13.91;88.15
27334;BME280;14817;57.104;-2.094;2022-08-27T06:06:06;101083.50;;;14.03;87.77
27334;BME280;14817;57.104;-2.094;2022-08-27T06:08:34;101090.59;;;14.04;87.79
27334;BME280;14817;57.104;-2.094;2022-08-27T06:11:03;101103.75;;;14.07;87.95
27334;BME280;14817;57.104;-2.094;2022-08-27T06:13:32;101086.91;;;14.05;87.74
27334;BME280;14817;57.104;-2.094;2022-08-27T06:16:07;101096.69;;;14.06;88.11
27334;BME280;14817;57.104;-2.094;2022-08-27T06:18:36;101091.72;;;14.28;87.00
27334;BME280;14817;57.104;-2.094;2022-08-27T06:21:06;101098.81;;;14.37;86.53
27334;BME280;14817;57.104;-2.094;2022-08-27T06:23:35;101102.19;;;14.39;86.20
27334;BME280;14817;57.104;-2.094;2022-08-27T06:26:05;101104.34;;;14.36;86.65
27334;BME280;14817;57.104;-2.094;2022-08-27T06:28:33;101099.03;;;14.52;85.72
27334;BME280;14817;57.104;-2.094;2022-08-27T06:31:10;101105.25;;;14.53;85.86
27334;BME280;14817;57.104;-2.094;2022-08-27T06:33:38;101106.34;;;14.60;85.25
27334;BME280;14817;57.104;-2.094;2022-08-27T06:36:09;101109.16;;;14.16;87.04
27334;BME280;14817;57.104;-2.094;2022-08-27T06:38:37;101108.13;;;14.51;86.00
27334;BME280;14817;57.104;-2.094;2022-08-27T06:41:06;101100.72;;;14.53;85.37
27334;BME280;14817;57.104;-2.094;2022-08-27T06:43:42;101101.97;;;14.67;84.44
27334;BME280;14817;57.104;-2.094;2022-08-27T06:46:13;101102.16;;;14.74;84.62
27334;BME280;14817;57.104;-2.094;2022-08-27T06:48:41;101111.06;;;14.58;84.88
27334;BME280;14817;57.104;-2.094;2022-08-27T06:51:21;101115.34;;;14.50;85.27
27334;BME280;14817;57.104;-2.094;2022-08-27T06:53:50;101120.13;;;14.57;84.94
27334;BME280;14817;57.104;-2.094;2022-08-27T06:56:18;101125.06;;;14.35;86.19
27334;BME280;14817;57.104;-2.094;2022-08-27T06:58:46;101123.91;;;14.38;86.36
27334;BME280;14817;57.104;-2.094;2022-08-27T07:01:23;101130.66;;;14.42;86.43
27334;BME280;14817;57.104;-2.094;2022-08-27T07:03:53;101131.25;;;14.19;87.28
27334;BME280;14817;57.104;-2.094;2022-08-27T07:06:24;101141.09;;;14.37;86.57
27334;BME280;14817;57.104;-2.094;2022-08-27T07:08:51;101131.19;;;14.45;86.55
27334;BME280;14817;57.104;-2.094;2022-08-27T07:11:19;101142.75;;;14.38;87.01
27334;BME280;14817;57.104;-2.094;2022-08-27T07:13:47;101139.69;;;14.59;85.98
27334;BME280;14817;57.104;-2.094;2022-08-27T07:16:20;101140.34;;;14.61;85.44
27334;BME280;14817;57.104;-2.094;2022-08-27T07:18:50;101139.84;;;14.57;86.04
27334;BME280;14817;57.104;-2.094;2022-08-27T07:21:18;101136.56;;;14.45;86.80
27334;BME280;14817;57.104;-2.094;2022-08-27T07:23:49;101133.28;;;14.60;85.88
27334;BME280;14817;57.104;-2.094;2022-08-27T07:26:17;101138.25;;;14.46;86.36
27334;BME280;14817;57.104;-2.094;2022-08-27T07:28:46;101142.94;;;14.36;86.30
27334;BME280;14817;57.104;-2.094;2022-08-27T07:31:20;101143.34;;;14.49;85.84
27334;BME280;14817;57.104;-2.094;2022-08-27T07:33:47;101152.03;;;14.35;86.05
27334;BME280;14817;57.104;-2.094;2022-08-27T07:36:22;101154.75;;;14.43;85.46
27334;BME280;14817;57.104;-2.094;2022-08-27T07:38:50;101151.41;;;14.49;84.50
27334;BME280;14817;57.104;-2.094;2022-08-27T07:41:31;101147.19;;;14.47;84.44
27334;BME280;14817;57.104;-2.094;2022-08-27T07:43:59;101156.00;;;14.23;85.67
27334;BME280;14817;57.104;-2.094;2022-08-27T07:46:45;101159.81;;;14.46;84.52
27334;BME280;14817;57.104;-2.094;2022-08-27T07:49:18;101164.50;;;14.36;85.54
27334;BME280;14817;57.104;-2.094;2022-08-27T07:51:45;101165.88;;;14.40;84.91
27334;BME280;14817;57.104;-2.094;2022-08-27T07:54:12;101170.34;;;14.23;85.66
27334;BME280;14817;57.104;-2.094;2022-08-27T07:56:39;101162.25;;;14.32;85.32
27334;BME280;14817;57.104;-2.094;2022-08-27T07:59:06;101175.72;;;14.23;85.41
27334;BME280;14817;57.104;-2.094;2022-08-27T08:01:34;101169.47;;;14.23;85.53
27334;BME280;14817;57.104;-2.094;2022-08-27T08:04:01;101176.91;;;14.29;85.33
27334;BME280;14817;57.104;-2.094;2022-08-27T08:06:28;101180.56;;;14.20;85.64
27334;BME280;14817;57.104;-2.094;2022-08-27T08:08:55;101175.88;;;14.22;86.05
27334;BME280;14817;57.104;-2.094;2022-08-27T08:11:21;101183.19;;;14.38;85.24
27334;BME280;14817;57.104;-2.094;2022-08-27T08:13:48;101176.97;;;14.37;85.81
27334;BME280;14817;57.104;-2.094;2022-08-27T08:16:15;101173.63;;;14.78;84.70
27334;BME280;14817;57.104;-2.094;2022-08-27T08:18:42;101171.53;;;15.39;82.48
27334;BME280;14817;57.104;-2.094;2022-08-27T08:21:11;101169.28;;;16.16;81.43
27334;BME280;14817;57.104;-2.094;2022-08-27T08:23:40;101158.97;;;17.45;75.46
27334;BME280;14817;57.104;-2.094;2022-08-27T08:26:10;101157.34;;;17.97;74.52
27334;BME280;14817;57.104;-2.094;2022-08-27T08:28:38;101159.75;;;18.66;71.62
27334;BME280;14817;57.104;-2.094;2022-08-27T08:31:06;101159.13;;;18.34;71.20
27334;BME280;14817;57.104;-2.094;2022-08-27T08:33:34;101170.63;;;18.36;71.08
27334;BME280;14817;57.104;-2.094;2022-08-27T08:36:05;101152.44;;;19.46;67.82
27334;BME280;14817;57.104;-2.094;2022-08-27T08:38:32;101160.59;;;19.24;67.38
27334;BME280;14817;57.104;-2.094;2022-08-27T08:40:59;101161.59;;;18.95;68.84
27334;BME280;14817;57.104;-2.094;2022-08-27T08:46:24;101163.81;;;18.91;67.87
27334;BME280;14817;57.104;-2.094;2022-08-27T08:48:50;101174.47;;;17.74;72.03
27334;BME280;14817;57.104;-2.094;2022-08-27T08:51:25;101178.25;;;17.88;72.39
27334;BME280;14817;57.104;-2.094;2022-08-27T08:54:02;101180.53;;;17.99;71.84
27334;BME280;14817;57.104;-2.094;2022-08-27T08:56:40;101174.56;;;17.81;73.10
27334;BME280;14817;57.104;-2.094;2022-08-27T08:59:19;101179.81;;;18.35;70.76
27334;BME280;14817;57.104;-2.094;2022-08-27T09:01:50;101172.72;;;17.43;72.84
27334;BME280;14817;57.104;-2.094;2022-08-27T09:04:17;101182.81;;;17.26;74.61
27334;BME280;14817;57.104;-2.094;2022-08-27T09:06:59;101183.59;;;17.73;72.51
27334;BME280;14817;57.104;-2.094;2022-08-27T09:09:37;101182.66;;;17.43;72.53
27334;BME280;14817;57.104;-2.094;2022-08-27T09:12:20;101186.91;;;17.22;74.02
27334;BME280;14817;57.104;-2.094;2022-08-27T09:17:38;101185.19;;;17.21;73.48
27334;BME280;14817;57.104;-2.094;2022-08-27T09:20:09;101182.75;;;16.80;74.85
27334;BME280;14817;57.104;-2.094;2022-08-27T09:22:56;101187.53;;;17.01;74.63
27334;BME280;14817;57.104;-2.094;2022-08-27T09:25:32;101182.94;;;17.33;73.58
27334;BME280;14817;57.104;-2.094;2022-08-27T09:28:05;101182.06;;;17.55;72.05
27334;BME280;14817;57.104;-2.094;2022-08-27T09:30:52;101177.25;;;16.97;73.55
27334;BME280;14817;57.104;-2.094;2022-08-27T09:33:22;101185.47;;;16.72;74.38
27334;BME280;14817;57.104;-2.094;2022-08-27T09:35:49;101196.53;;;16.54;76.23
27334;BME280;14817;57.104;-2.094;2022-08-27T09:38:27;101194.25;;;16.74;75.03
27334;BME280;14817;57.104;-2.094;2022-08-27T09:40:58;101191.16;;;16.85;74.35
27334;BME280;14817;57.104;-2.094;2022-08-27T09:43:28;101197.88;;;16.58;76.35
27334;BME280;14817;57.104;-2.094;2022-08-27T09:46:06;101203.84;;;16.45;77.22
27334;BME280;14817;57.104;-2.094;2022-08-27T09:48:40;101191.16;;;16.85;75.49
27334;BME280;14817;57.104;-2.094;2022-08-27T09:51:09;101188.91;;;16.97;74.60
27334;BME280;14817;57.104;-2.094;2022-08-27T09:53:46;101194.09;;;17.07;74.50
27334;BME280;14817;57.104;-2.094;2022-08-27T09:59:06;101188.03;;;17.28;74.91
27334;BME280;14817;57.104;-2.094;2022-08-27T10:01:36;101191.50;;;17.37;74.19
27334;BME280;14817;57.104;-2.094;2022-08-27T10:04:16;101190.50;;;17.84;72.57
27334;BME280;14817;57.104;-2.094;2022-08-27T10:06:50;101186.88;;;18.21;71.65
27334;BME280;14817;57.104;-2.094;2022-08-27T10:09:34;101192.88;;;18.46;71.31
27334;BME280;14817;57.104;-2.094;2022-08-27T10:12:11;101197.63;;;18.74;70.50
27334;BME280;14817;57.104;-2.094;2022-08-27T10:14:43;101196.59;;;18.60;69.22
27334;BME280;14817;57.104;-2.094;2022-08-27T10:25:28;101198.28;;;18.61;68.58
27334;BME280;14817;57.104;-2.094;2022-08-27T10:31:08;101197.56;;;18.52;67.79
27334;BME280;14817;57.104;-2.094;2022-08-27T10:36:40;101196.31;;;18.70;66.75
27334;BME280;14817;57.104;-2.094;2022-08-27T10:44:51;101191.25;;;18.52;65.92
27334;BME280;14817;57.104;-2.094;2022-08-27T10:50:08;101198.00;;;18.26;67.31
27334;BME280;14817;57.104;-2.094;2022-08-27T10:52:40;101201.63;;;17.89;68.81
27334;BME280;14817;57.104;-2.094;2022-08-27T10:55:13;101205.47;;;17.94;69.94
27334;BME280;14817;57.104;-2.094;2022-08-27T11:03:13;101205.56;;;18.01;69.50
27334;BME280;14817;57.104;-2.094;2022-08-27T11:08:40;101201.75;;;18.10;70.01
27334;BME280;14817;57.104;-2.094;2022-08-27T11:17:17;101196.22;;;18.93;66.40
27334;BME280;14817;57.104;-2.094;2022-08-27T11:19:58;101195.09;;;18.72;67.40
27334;BME280;14817;57.104;-2.094;2022-08-27T11:22:32;101196.91;;;18.21;68.91
27334;BME280;14817;57.104;-2.094;2022-08-27T11:27:47;101194.53;;;18.17;70.54
27334;BME280;14817;57.104;-2.094;2022-08-27T11:33:28;101194.44;;;18.85;65.92
27334;BME280;14817;57.104;-2.094;2022-08-27T11:39:03;101197.81;;;18.57;66.02
27334;BME280;14817;57.104;-2.094;2022-08-27T11:41:50;101200.91;;;18.69;66.00
27334;BME280;14817;57.104;-2.094;2022-08-27T11:44:23;101195.84;;;18.66;64.43
27334;BME280;14817;57.104;-2.094;2022-08-27T11:47:40;101191.16;;;18.90;65.41
27334;BME280;14817;57.104;-2.094;2022-08-27T11:49:58;101205.28;;;19.65;63.08
27334;BME280;14817;57.104;-2.094;2022-08-27T11:52:37;101204.34;;;19.51;62.67
27334;BME280;14817;57.104;-2.094;2022-08-27T11:57:49;101195.13;;;19.52;61.42
27334;BME280;14817;57.104;-2.094;2022-08-27T12:00:30;101198.47;;;20.25;61.50
27334;BME280;14817;57.104;-2.094;2022-08-27T12:03:21;101209.16;;;19.70;63.12
27334;BME280;14817;57.104;-2.094;2022-08-27T12:26:41;101209.00;;;19.14;65.59
27334;BME280;14817;57.104;-2.094;2022-08-27T12:32:23;101207.50;;;19.33;66.11
27334;BME280;14817;57.104;-2.094;2022-08-27T12:35:30;101212.38;;;19.59;64.39
27334;BME280;14817;57.104;-2.094;2022-08-27T12:38:17;101210.00;;;19.13;65.70
27334;BME280;14817;57.104;-2.094;2022-08-27T12:40:53;101210.94;;;19.42;64.03
27334;BME280;14817;57.104;-2.094;2022-08-27T12:43:25;101200.50;;;19.02;65.14
27334;BME280;14817;57.104;-2.094;2022-08-27T12:46:02;101201.81;;;19.28;65.08
27334;BME280;14817;57.104;-2.094;2022-08-27T12:48:33;101203.44;;;19.65;63.91
27334;BME280;14817;57.104;-2.094;2022-08-27T12:51:07;101204.53;;;19.28;64.66
27334;BME280;14817;57.104;-2.094;2022-08-27T12:53:49;101201.34;;;19.24;64.76
27334;BME280;14817;57.104;-2.094;2022-08-27T13:01:56;101200.25;;;18.67;66.49
27334;BME280;14817;57.104;-2.094;2022-08-27T13:04:27;101197.47;;;18.31;67.57
27334;BME280;14817;57.104;-2.094;2022-08-27T13:06:56;101202.25;;;18.29;68.10
27334;BME280;14817;57.104;-2.094;2022-08-27T13:09:26;101198.94;;;18.19;69.02
27334;BME280;14817;57.104;-2.094;2022-08-27T13:11:54;101211.91;;;17.93;69.27
27334;BME280;14817;57.104;-2.094;2022-08-27T13:14:24;101207.03;;;17.89;70.42
27334;BME280;14817;57.104;-2.094;2022-08-27T13:16:57;101209.66;;;17.82;69.97
27334;BME280;14817;57.104;-2.094;2022-08-27T13:22:38;101195.19;;;17.67;72.02
27334;BME280;14817;57.104;-2.094;2022-08-27T13:25:30;101199.88;;;18.11;69.56
27334;BME280;14817;57.104;-2.094;2022-08-27T13:28:07;101200.34;;;17.76;71.96
27334;BME280;14817;57.104;-2.094;2022-08-27T13:30:44;101204.16;;;17.44;72.92
27334;BME280;14817;57.104;-2.094;2022-08-27T13:33:23;101205.91;;;17.14;73.85
27334;BME280;14817;57.104;-2.094;2022-08-27T13:35:53;101207.91;;;17.20;73.74
27334;BME280;14817;57.104;-2.094;2022-08-27T13:38:20;101205.66;;;17.01;74.69
27334;BME280;14817;57.104;-2.094;2022-08-27T13:43:17;101203.34;;;17.12;74.96
27334;BME280;14817;57.104;-2.094;2022-08-27T13:45:48;101202.47;;;17.20;74.37
27334;BME280;14817;57.104;-2.094;2022-08-27T13:48:18;101199.53;;;17.53;72.60
27334;BME280;14817;57.104;-2.094;2022-08-27T13:50:51;101195.56;;;17.79;72.25
27334;BME280;14817;57.104;-2.094;2022-08-27T13:53:21;101203.50;;;17.42;74.31
27334;BME280;14817;57.104;-2.094;2022-08-27T13:56:08;101194.53;;;17.65;72.70
27334;BME280;14817;57.104;-2.094;2022-08-27T13:58:36;101196.81;;;17.30;73.61
27334;BME280;14817;57.104;-2.094;2022-08-27T14:01:12;101194.16;;;17.22;74.04
27334;BME280;14817;57.104;-2.094;2022-08-27T14:03:48;101189.22;;;17.25;73.77
27334;BME280;14817;57.104;-2.094;2022-08-27T14:06:37;101182.28;;;17.00;74.52
27334;BME280;14817;57.104;-2.094;2022-08-27T14:09:26;101183.41;;;17.13;74.58
27334;BME280;14817;57.104;-2.094;2022-08-27T14:12:05;101188.63;;;17.15;74.30
27334;BME280;14817;57.104;-2.094;2022-08-27T14:14:38;101187.38;;;17.03;75.04
27334;BME280;14817;57.104;-2.094;2022-08-27T14:17:18;101183.38;;;16.90;75.58
27334;BME280;14817;57.104;-2.094;2022-08-27T14:19:46;101181.38;;;16.84;75.98
27334;BME280;14817;57.104;-2.094;2022-08-27T14:22:15;101188.81;;;16.82;76.25
27334;BME280;14817;57.104;-2.094;2022-08-27T14:24:43;101185.50;;;17.03;74.94
27334;BME280;14817;57.104;-2.094;2022-08-27T14:27:12;101171.72;;;16.90;75.90
27334;BME280;14817;57.104;-2.094;2022-08-27T14:29:40;101178.53;;;16.69;76.94
27334;BME280;14817;57.104;-2.094;2022-08-27T14:32:07;101168.97;;;16.59;76.99
27334;BME280;14817;57.104;-2.094;2022-08-27T14:34:34;101171.50;;;16.60;77.22
27334;BME280;14817;57.104;-2.094;2022-08-27T14:37:02;101178.25;;;16.64;76.97
27334;BME280;14817;57.104;-2.094;2022-08-27T14:39:29;101168.31;;;16.48;77.74
27334;BME280;14817;57.104;-2.094;2022-08-27T14:41:57;101170.06;;;16.41;77.78